sensor_id;sensor_type;location;lat;lon;timestamp;temperature;humidity
3794;DHT22;1912;51.358;12.282;2024-02-21T04:51:58;7.70;1.00
3794;DHT22;1912;51.358;12.282;2024-02-21T04:54:24;7.70;1.00
3794;DHT22;1912;51.358;12.282;2024-02-21T04:56:50;7.70;1.00
3794;DHT22;1912;51.358;12.282;2024-02-21T04:59:16;7.60;1.00
3794;DHT22;1912;51.358;12.282;2024-02-21T05:01:41;7.70;1.00
3794;DHT22;1912;51.358;12.282;2024-02-21T05:04:07;7.60;1.00
3794;DHT22;1912;51.358;12.282;2024-02-21T05:06:37;7.60;1.00
3794;DHT22;1912;51.358;12.282;2024-02-21T05:09:04;7.60;1.00
3794;DHT22;1912;51.358;12.282;2024-02-21T05:11:30;7.60;1.00
3794;DHT22;1912;51.358;12.282;2024-02-21T05:13:56;7.60;1.00
3794;DHT22;1912;51.358;12.282;2024-02-21T05:16:22;7.60;1.00
3794;DHT22;1912;51.358;12.282;2024-02-21T05:18:47;7.60;1.00
3794;DHT22;1912;51.358;12.282;2024-02-21T05:21:13;7.70;1.00
3794;DHT22;1912;51.358;12.282;2024-02-21T05:23:39;7.70;1.00
3794;DHT22;1912;51.358;12.282;2024-02-21T05:26:05;7.70;1.00
3794;DHT22;1912;51.358;12.282;2024-02-21T05:28:31;7.60;1.00
3794;DHT22;1912;51.358;12.282;2024-02-21T05:30:57;7.60;1.00
3794;DHT22;1912;51.358;12.282;2024-02-21T05:33:23;7.50;1.00
3794;DHT22;1912;51.358;12.282;2024-02-21T05:35:49;7.50;1.00
3794;DHT22;1912;51.358;12.282;2024-02-21T05:38:15;7.50;1.00
3794;DHT22;1912;51.358;12.282;2024-02-21T05:40:41;7.50;1.00
3794;DHT22;1912;51.358;12.282;2024-02-21T05:43:07;7.50;1.00
3794;DHT22;1912;51.358;12.282;2024-02-21T05:45:34;7.50;1.00
3794;DHT22;1912;51.358;12.282;2024-02-21T05:48:00;7.50;1.00
3794;DHT22;1912;51.358;12.282;2024-02-21T05:50:26;7.60;1.00
3794;DHT22;1912;51.358;12.282;2024-02-21T05:52:54;7.60;1.00
3794;DHT22;1912;51.358;12.282;2024-02-21T05:55:20;7.60;1.00
3794;DHT22;1912;51.358;12.282;2024-02-21T05:57:46;7.60;1.00
3794;DHT22;1912;51.358;12.282;2024-02-21T06:00:13;7.60;1.00
3794;DHT22;1912;51.358;12.282;2024-02-21T06:02:38;7.60;1.00
3794;DHT22;1912;51.358;12.282;2024-02-21T06:05:05;7.60;1.00
3794;DHT22;1912;51.358;12.282;2024-02-21T06:07:36;7.50;1.00
3794;DHT22;1912;51.358;12.282;2024-02-21T06:10:02;7.50;1.00
3794;DHT22;1912;51.358;12.282;2024-02-21T06:12:28;7.40;1.00
3794;DHT22;1912;51.358;12.282;2024-02-21T06:14:54;7.40;1.00
3794;DHT22;1912;51.358;12.282;2024-02-21T06:17:20;7.40;1.00
3794;DHT22;1912;51.358;12.282;2024-02-21T06:19:45;7.40;1.00
3794;DHT22;1912;51.358;12.282;2024-02-21T06:22:11;7.40;1.00
3794;DHT22;1912;51.358;12.282;2024-02-21T06:24:38;7.40;1.00
3794;DHT22;1912;51.358;12.282;2024-02-21T06:27:04;7.40;1.00
3794;DHT22;1912;51.358;12.282;2024-02-21T06:29:31;7.40;1.00
3794;DHT22;1912;51.358;12.282;2024-02-21T06:31:57;7.40;1.00
3794;DHT22;1912;51.358;12.282;2024-02-21T06:34:23;7.50;1.00
3794;DHT22;1912;51.358;12.282;2024-02-21T06:36:50;7.60;1.00
3794;DHT22;1912;51.358;12.282;2024-02-21T06:39:15;7.60;1.00
3794;DHT22;1912;51.358;12.282;2024-02-21T06:41:41;7.60;1.00
3794;DHT22;1912;51.358;12.282;2024-02-21T06:44:07;7.60;1.00
3794;DHT22;1912;51.358;12.282;2024-02-21T06:46:33;7.70;1.00
3794;DHT22;1912;51.358;12.282;2024-02-21T06:48:59;7.70;1.00
3794;DHT22;1912;51.358;12.282;2024-02-21T06:51:26;7.70;1.00
3794;DHT22;1912;51.358;12.282;2024-02-21T06:53:52;7.80;1.00
3794;DHT22;1912;51.358;12.282;2024-02-21T06:56:18;7.80;1.00
3794;DHT22;1912;51.358;12.282;2024-02-21T06:58:44;7.80;1.00
3794;DHT22;1912;51.358;12.282;2024-02-21T07:01:10;7.80;1.00
3794;DHT22;1912;51.358;12.282;2024-02-21T07:03:36;7.90;1.00
3794;DHT22;1912;51.358;12.282;2024-02-21T07:06:02;7.90;1.00
3794;DHT22;1912;51.358;12.282;2024-02-21T07:08:28;7.90;1.00
3794;DHT22;1912;51.358;12.282;2024-02-21T07:10:54;7.90;1.00
3794;DHT22;1912;51.358;12.282;2024-02-21T07:13:19;8.00;1.00
3794;DHT22;1912;51.358;12.282;2024-02-21T07:15:45;7.90;1.00
3794;DHT22;1912;51.358;12.282;2024-02-21T07:18:11;8.00;1.00
3794;DHT22;1912;51.358;12.282;2024-02-21T07:20:37;8.00;1.00
3794;DHT22;1912;51.358;12.282;2024-02-21T07:23:03;8.00;1.00
3794;DHT22;1912;51.358;12.282;2024-02-21T07:25:29;8.00;1.00
3794;DHT22;1912;51.358;12.282;2024-02-21T07:27:55;8.00;1.00
3794;DHT22;1912;51.358;12.282;2024-02-21T07:30:21;8.00;1.00
3794;DHT22;1912;51.358;12.282;2024-02-21T07:32:49;8.00;1.00
3794;DHT22;1912;51.358;12.282;2024-02-21T07:35:16;8.10;1.00
3794;DHT22;1912;51.358;12.282;2024-02-21T07:37:42;8.10;1.00
3794;DHT22;1912;51.358;12.282;2024-02-21T07:40:13;8.10;1.00
3794;DHT22;1912;51.358;12.282;2024-02-21T07:42:39;8.10;1.00
3794;DHT22;1912;51.358;12.282;2024-02-21T07:45:09;8.10;1.00
3794;DHT22;1912;51.358;12.282;2024-02-21T07:47:36;8.10;1.00
3794;DHT22;1912;51.358;12.282;2024-02-21T07:50:05;8.10;1.00
3794;DHT22;1912;51.358;12.282;2024-02-21T07:52:31;8.10;1.00
3794;DHT22;1912;51.358;12.282;2024-02-21T07:54:57;8.10;1.00
3794;DHT22;1912;51.358;12.282;2024-02-21T07:57:23;8.10;1.00
3794;DHT22;1912;51.358;12.282;2024-02-21T07:59:48;8.20;1.00
3794;DHT22;1912;51.358;12.282;2024-02-21T08:02:14;8.20;1.00
3794;DHT22;1912;51.358;12.282;2024-02-21T08:04:40;8.20;1.00
3794;DHT22;1912;51.358;12.282;2024-02-21T08:07:06;8.20;1.00
3794;DHT22;1912;51.358;12.282;2024-02-21T08:09:32;8.20;1.00
3794;DHT22;1912;51.358;12.282;2024-02-21T08:11:57;8.30;1.00
3794;DHT22;1912;51.358;12.282;2024-02-21T08:14:23;8.30;1.00
3794;DHT22;1912;51.358;12.282;2024-02-21T08:16:50;8.30;1.00
3794;DHT22;1912;51.358;12.282;2024-02-21T08:19:18;8.30;1.00
3794;DHT22;1912;51.358;12.282;2024-02-21T08:21:44;8.40;1.00
3794;DHT22;1912;51.358;12.282;2024-02-21T08:24:12;8.40;1.00
3794;DHT22;1912;51.358;12.282;2024-02-21T08:26:41;8.40;1.00
3794;DHT22;1912;51.358;12.282;2024-02-21T08:29:07;8.50;1.00
3794;DHT22;1912;51.358;12.282;2024-02-21T08:31:33;8.40;1.00
3794;DHT22;1912;51.358;12.282;2024-02-21T08:34:00;8.50;1.00
3794;DHT22;1912;51.358;12.282;2024-02-21T08:36:33;8.50;1.00
3794;DHT22;1912;51.358;12.282;2024-02-21T08:38:59;8.50;1.00
3794;DHT22;1912;51.358;12.282;2024-02-21T08:41:26;8.50;1.00
3794;DHT22;1912;51.358;12.282;2024-02-21T08:43:52;8.50;1.00
3794;DHT22;1912;51.358;12.282;2024-02-21T08:46:22;8.40;1.00
3794;DHT22;1912;51.358;12.282;2024-02-21T08:48:52;8.40;1.00
3794;DHT22;1912;51.358;12.282;2024-02-21T08:51:19;8.40;1.00
3794;DHT22;1912;51.358;12.282;2024-02-21T08:53:45;8.40;1.00
3794;DHT22;1912;51.358;12.282;2024-02-21T08:56:11;8.40;1.00
3794;DHT22;1912;51.358;12.282;2024-02-21T08:58:38;8.40;1.00
3794;DHT22;1912;51.358;12.282;2024-02-21T09:01:05;8.40;1.00
3794;DHT22;1912;51.358;12.282;2024-02-21T09:03:32;8.40;1.00
3794;DHT22;1912;51.358;12.282;2024-02-21T09:05:59;8.40;1.00
3794;DHT22;1912;51.358;12.282;2024-02-21T09:08:25;8.40;1.00
3794;DHT22;1912;51.358;12.282;2024-02-21T09:10:52;8.40;1.00
3794;DHT22;1912;51.358;12.282;2024-02-21T09:13:18;8.40;1.00
3794;DHT22;1912;51.358;12.282;2024-02-21T09:15:43;8.40;1.00
3794;DHT22;1912;51.358;12.282;2024-02-21T09:18:09;8.40;1.00
3794;DHT22;1912;51.358;12.282;2024-02-21T09:20:35;8.40;1.00
3794;DHT22;1912;51.358;12.282;2024-02-21T09:23:01;8.50;1.00
3794;DHT22;1912;51.358;12.282;2024-02-21T09:25:26;8.50;1.00
3794;DHT22;1912;51.358;12.282;2024-02-21T09:27:54;8.50;1.00
3794;DHT22;1912;51.358;12.282;2024-02-21T09:30:20;8.60;1.00
3794;DHT22;1912;51.358;12.282;2024-02-21T09:32:46;8.60;1.00
3794;DHT22;1912;51.358;12.282;2024-02-21T09:35:12;8.60;1.00
3794;DHT22;1912;51.358;12.282;2024-02-21T09:37:38;8.60;1.00
3794;DHT22;1912;51.358;12.282;2024-02-21T09:40:05;8.60;1.00
3794;DHT22;1912;51.358;12.282;2024-02-21T09:42:37;8.60;1.00
3794;DHT22;1912;51.358;12.282;2024-02-21T09:45:26;8.60;1.00
3794;DHT22;1912;51.358;12.282;2024-02-21T09:50:49;8.70;1.00
3794;DHT22;1912;51.358;12.282;2024-02-21T09:53:16;8.70;1.00
3794;DHT22;1912;51.358;12.282;2024-02-21T09:55:43;8.70;1.00
3794;DHT22;1912;51.358;12.282;2024-02-21T09:58:09;8.70;1.00
3794;DHT22;1912;51.358;12.282;2024-02-21T10:00:36;8.80;1.00
3794;DHT22;1912;51.358;12.282;2024-02-21T10:03:02;8.90;1.00
3794;DHT22;1912;51.358;12.282;2024-02-21T10:05:34;8.90;1.00
3794;DHT22;1912;51.358;12.282;2024-02-21T10:08:01;8.90;1.00
3794;DHT22;1912;51.358;12.282;2024-02-21T10:10:27;8.90;1.00
3794;DHT22;1912;51.358;12.282;2024-02-21T10:12:53;9.00;1.00
3794;DHT22;1912;51.358;12.282;2024-02-21T10:15:23;9.00;1.00
3794;DHT22;1912;51.358;12.282;2024-02-21T10:17:59;9.10;1.00
3794;DHT22;1912;51.358;12.282;2024-02-21T10:20:27;9.10;1.00
3794;DHT22;1912;51.358;12.282;2024-02-21T10:23:05;9.10;1.00
3794;DHT22;1912;51.358;12.282;2024-02-21T10:25:35;9.10;1.00
3794;DHT22;1912;51.358;12.282;2024-02-21T10:28:03;9.10;1.00
3794;DHT22;1912;51.358;12.282;2024-02-21T10:30:29;9.20;1.00
3794;DHT22;1912;51.358;12.282;2024-02-21T10:32:55;9.20;1.00
3794;DHT22;1912;51.358;12.282;2024-02-21T10:35:32;9.20;1.00
3794;DHT22;1912;51.358;12.282;2024-02-21T10:37:59;9.30;1.00
3794;DHT22;1912;51.358;12.282;2024-02-21T10:40:26;9.40;1.00
3794;DHT22;1912;51.358;12.282;2024-02-21T10:43:00;9.40;1.00
3794;DHT22;1912;51.358;12.282;2024-02-21T10:45:36;9.40;1.00
3794;DHT22;1912;51.358;12.282;2024-02-21T10:48:10;9.40;1.00
3794;DHT22;1912;51.358;12.282;2024-02-21T10:53:56;9.40;1.00
3794;DHT22;1912;51.358;12.282;2024-02-21T10:56:38;9.50;1.00
3794;DHT22;1912;51.358;12.282;2024-02-21T10:59:06;9.50;1.00
3794;DHT22;1912;51.358;12.282;2024-02-21T11:01:33;9.50;1.00
3794;DHT22;1912;51.358;12.282;2024-02-21T11:04:08;9.50;1.00
3794;DHT22;1912;51.358;12.282;2024-02-21T11:06:38;9.60;1.00
3794;DHT22;1912;51.358;12.282;2024-02-21T11:09:06;9.60;1.00
3794;DHT22;1912;51.358;12.282;2024-02-21T11:11:40;9.70;1.00
3794;DHT22;1912;51.358;12.282;2024-02-21T11:14:11;9.70;1.00
3794;DHT22;1912;51.358;12.282;2024-02-21T11:16:43;9.80;1.00
3794;DHT22;1912;51.358;12.282;2024-02-21T11:21:46;9.90;1.00
3794;DHT22;1912;51.358;12.282;2024-02-21T11:24:32;9.90;1.00
3794;DHT22;1912;51.358;12.282;2024-02-21T11:27:15;9.80;1.00
3794;DHT22;1912;51.358;12.282;2024-02-21T11:29:46;9.80;1.00
3794;DHT22;1912;51.358;12.282;2024-02-21T11:32:17;9.90;1.00
3794;DHT22;1912;51.358;12.282;2024-02-21T11:34:59;9.80;1.00
3794;DHT22;1912;51.358;12.282;2024-02-21T11:37:27;9.90;1.00
3794;DHT22;1912;51.358;12.282;2024-02-21T11:39:55;9.90;1.00
3794;DHT22;1912;51.358;12.282;2024-02-21T11:42:21;9.80;1.00
3794;DHT22;1912;51.358;12.282;2024-02-21T11:44:48;9.90;1.00
3794;DHT22;1912;51.358;12.282;2024-02-21T11:47:14;9.80;1.00
3794;DHT22;1912;51.358;12.282;2024-02-21T11:49:45;9.90;1.00
3794;DHT22;1912;51.358;12.282;2024-02-21T11:52:12;10.00;1.00
3794;DHT22;1912;51.358;12.282;2024-02-21T11:54:40;9.90;1.00
3794;DHT22;1912;51.358;12.282;2024-02-21T11:57:06;9.90;1.00
3794;DHT22;1912;51.358;12.282;2024-02-21T11:59:33;9.90;1.00
3794;DHT22;1912;51.358;12.282;2024-02-21T12:01:59;10.00;1.00
3794;DHT22;1912;51.358;12.282;2024-02-21T12:04:25;9.90;1.00
3794;DHT22;1912;51.358;12.282;2024-02-21T12:06:53;10.00;1.00
3794;DHT22;1912;51.358;12.282;2024-02-21T12:09:19;10.00;1.00
3794;DHT22;1912;51.358;12.282;2024-02-21T12:11:45;10.10;1.00
3794;DHT22;1912;51.358;12.282;2024-02-21T12:14:16;10.20;1.00
3794;DHT22;1912;51.358;12.282;2024-02-21T12:16:42;10.20;1.00
3794;DHT22;1912;51.358;12.282;2024-02-21T12:19:09;10.20;1.00
3794;DHT22;1912;51.358;12.282;2024-02-21T12:21:35;10.40;1.00
3794;DHT22;1912;51.358;12.282;2024-02-21T12:24:23;10.30;1.00
3794;DHT22;1912;51.358;12.282;2024-02-21T12:26:50;10.40;1.00
3794;DHT22;1912;51.358;12.282;2024-02-21T12:29:17;10.40;1.00
3794;DHT22;1912;51.358;12.282;2024-02-21T12:31:46;10.40;1.00
3794;DHT22;1912;51.358;12.282;2024-02-21T12:34:12;10.30;1.00
3794;DHT22;1912;51.358;12.282;2024-02-21T12:36:42;10.40;1.00
3794;DHT22;1912;51.358;12.282;2024-02-21T12:39:09;10.40;1.00
3794;DHT22;1912;51.358;12.282;2024-02-21T12:41:36;10.70;1.00
3794;DHT22;1912;51.358;12.282;2024-02-21T12:44:06;10.90;1.00
3794;DHT22;1912;51.358;12.282;2024-02-21T12:46:35;10.90;1.00
3794;DHT22;1912;51.358;12.282;2024-02-21T12:49:04;10.80;1.00
3794;DHT22;1912;51.358;12.282;2024-02-21T12:51:31;10.90;1.00
3794;DHT22;1912;51.358;12.282;2024-02-21T12:53:57;10.90;1.00
3794;DHT22;1912;51.358;12.282;2024-02-21T12:56:23;11.10;1.00
3794;DHT22;1912;51.358;12.282;2024-02-21T12:58:49;11.50;1.00
3794;DHT22;1912;51.358;12.282;2024-02-21T13:01:16;11.50;1.00
3794;DHT22;1912;51.358;12.282;2024-02-21T13:03:41;11.30;1.00
3794;DHT22;1912;51.358;12.282;2024-02-21T13:06:07;11.30;1.00
3794;DHT22;1912;51.358;12.282;2024-02-21T13:08:36;11.40;1.00
3794;DHT22;1912;51.358;12.282;2024-02-21T13:11:03;11.20;1.00
3794;DHT22;1912;51.358;12.282;2024-02-21T13:13:29;10.90;1.00
3794;DHT22;1912;51.358;12.282;2024-02-21T13:15:55;11.00;1.00
3794;DHT22;1912;51.358;12.282;2024-02-21T13:18:20;11.10;1.00
3794;DHT22;1912;51.358;12.282;2024-02-21T13:20:47;11.30;1.00
3794;DHT22;1912;51.358;12.282;2024-02-21T13:23:12;11.60;1.00
3794;DHT22;1912;51.358;12.282;2024-02-21T13:25:38;11.80;1.00
3794;DHT22;1912;51.358;12.282;2024-02-21T13:28:04;11.80;1.00
3794;DHT22;1912;51.358;12.282;2024-02-21T13:30:30;11.70;1.00
3794;DHT22;1912;51.358;12.282;2024-02-21T13:32:56;11.60;1.00
3794;DHT22;1912;51.358;12.282;2024-02-21T13:35:21;11.70;1.00
3794;DHT22;1912;51.358;12.282;2024-02-21T13:37:47;11.50;1.00
3794;DHT22;1912;51.358;12.282;2024-02-21T13:40:13;11.50;1.00
3794;DHT22;1912;51.358;12.282;2024-02-21T13:42:39;11.50;1.00
3794;DHT22;1912;51.358;12.282;2024-02-21T13:45:06;11.60;1.00
3794;DHT22;1912;51.358;12.282;2024-02-21T13:47:33;11.60;1.00
3794;DHT22;1912;51.358;12.282;2024-02-21T13:49:59;11.70;1.00
3794;DHT22;1912;51.358;12.282;2024-02-21T13:52:25;11.70;1.00
3794;DHT22;1912;51.358;12.282;2024-02-21T13:54:53;11.60;1.00
3794;DHT22;1912;51.358;12.282;2024-02-21T13:57:19;11.70;1.00
3794;DHT22;1912;51.358;12.282;2024-02-21T13:59:46;11.80;1.00
3794;DHT22;1912;51.358;12.282;2024-02-21T14:02:11;11.90;1.00
3794;DHT22;1912;51.358;12.282;2024-02-21T14:04:38;12.00;1.00
3794;DHT22;1912;51.358;12.282;2024-02-21T14:07:05;12.00;1.00
3794;DHT22;1912;51.358;12.282;2024-02-21T14:09:30;11.90;1.00
3794;DHT22;1912;51.358;12.282;2024-02-21T14:11:57;11.70;1.00
3794;DHT22;1912;51.358;12.282;2024-02-21T14:14:23;11.70;1.00
3794;DHT22;1912;51.358;12.282;2024-02-21T14:16:48;11.80;1.00
3794;DHT22;1912;51.358;12.282;2024-02-21T14:19:14;11.80;1.00
3794;DHT22;1912;51.358;12.282;2024-02-21T14:21:40;11.80;1.00
3794;DHT22;1912;51.358;12.282;2024-02-21T14:24:06;11.80;1.00
3794;DHT22;1912;51.358;12.282;2024-02-21T14:26:32;11.80;1.00
3794;DHT22;1912;51.358;12.282;2024-02-21T14:28:58;11.80;1.00
3794;DHT22;1912;51.358;12.282;2024-02-21T14:31:24;11.80;1.00
3794;DHT22;1912;51.358;12.282;2024-02-21T14:33:50;11.70;1.00
3794;DHT22;1912;51.358;12.282;2024-02-21T14:36:17;11.60;1.00
3794;DHT22;1912;51.358;12.282;2024-02-21T14:38:43;11.50;1.00
3794;DHT22;1912;51.358;12.282;2024-02-21T14:41:10;11.50;1.00
3794;DHT22;1912;51.358;12.282;2024-02-21T14:43:38;11.50;1.00
3794;DHT22;1912;51.358;12.282;2024-02-21T14:46:04;11.50;1.00
3794;DHT22;1912;51.358;12.282;2024-02-21T14:48:31;11.40;1.00
3794;DHT22;1912;51.358;12.282;2024-02-21T14:50:58;11.40;1.00
3794;DHT22;1912;51.358;12.282;2024-02-21T14:53:24;11.40;1.00
3794;DHT22;1912;51.358;12.282;2024-02-21T14:55:50;11.30;1.00
3794;DHT22;1912;51.358;12.282;2024-02-21T14:58:16;11.30;1.00
3794;DHT22;1912;51.358;12.282;2024-02-21T15:00:44;11.20;1.00
3794;DHT22;1912;51.358;12.282;2024-02-21T15:03:13;11.20;1.00
3794;DHT22;1912;51.358;12.282;2024-02-21T15:05:41;11.20;1.00
3794;DHT22;1912;51.358;12.282;2024-02-21T15:08:07;11.20;1.00
3794;DHT22;1912;51.358;12.282;2024-02-21T15:10:35;11.20;1.00
3794;DHT22;1912;51.358;12.282;2024-02-21T15:13:01;11.20;1.00
3794;DHT22;1912;51.358;12.282;2024-02-21T15:15:26;11.20;1.00
3794;DHT22;1912;51.358;12.282;2024-02-21T15:17:52;11.20;1.00
3794;DHT22;1912;51.358;12.282;2024-02-21T15:20:17;11.20;1.00
3794;DHT22;1912;51.358;12.282;2024-02-21T15:22:43;11.20;1.00
3794;DHT22;1912;51.358;12.282;2024-02-21T15:25:09;11.20;1.00
3794;DHT22;1912;51.358;12.282;2024-02-21T15:27:43;11.10;1.00
3794;DHT22;1912;51.358;12.282;2024-02-21T15:30:10;11.00;1.00
3794;DHT22;1912;51.358;12.282;2024-02-21T15:32:38;11.00;1.00
3794;DHT22;1912;51.358;12.282;2024-02-21T15:35:05;11.00;1.00
3794;DHT22;1912;51.358;12.282;2024-02-21T15:37:33;11.00;1.00
3794;DHT22;1912;51.358;12.282;2024-02-21T15:39:59;11.00;1.00
3794;DHT22;1912;51.358;12.282;2024-02-21T15:42:26;10.90;1.00
3794;DHT22;1912;51.358;12.282;2024-02-21T15:44:51;10.90;1.00
3794;DHT22;1912;51.358;12.282;2024-02-21T15:47:17;10.80;1.00
3794;DHT22;1912;51.358;12.282;2024-02-21T15:49:44;10.80;1.00
3794;DHT22;1912;51.358;12.282;2024-02-21T15:52:10;10.80;1.00
3794;DHT22;1912;51.358;12.282;2024-02-21T15:54:37;10.80;1.00
3794;DHT22;1912;51.358;12.282;2024-02-21T15:57:04;10.70;1.00
3794;DHT22;1912;51.358;12.282;2024-02-21T15:59:33;10.80;1.00
3794;DHT22;1912;51.358;12.282;2024-02-21T16:01:59;10.70;1.00
3794;DHT22;1912;51.358;12.282;2024-02-21T16:04:26;10.70;1.00
3794;DHT22;1912;51.358;12.282;2024-02-21T16:06:54;10.70;1.00
3794;DHT22;1912;51.358;12.282;2024-02-21T16:09:26;10.60;1.00
3794;DHT22;1912;51.358;12.282;2024-02-21T16:11:56;10.60;1.00
3794;DHT22;1912;51.358;12.282;2024-02-21T16:14:22;10.60;1.00
3794;DHT22;1912;51.358;12.282;2024-02-21T16:16:48;10.40;1.00
3794;DHT22;1912;51.358;12.282;2024-02-21T16:19:15;10.30;1.00
3794;DHT22;1912;51.358;12.282;2024-02-21T16:21:41;10.20;1.00
3794;DHT22;1912;51.358;12.282;2024-02-21T16:24:08;10.10;1.00
3794;DHT22;1912;51.358;12.282;2024-02-21T16:26:37;10.20;1.00
3794;DHT22;1912;51.358;12.282;2024-02-21T16:29:04;10.10;1.00
3794;DHT22;1912;51.358;12.282;2024-02-21T16:31:33;10.10;1.00
3794;DHT22;1912;51.358;12.282;2024-02-21T16:33:59;10.00;1.00
3794;DHT22;1912;51.358;12.282;2024-02-21T16:36:25;9.90;1.00
3794;DHT22;1912;51.358;12.282;2024-02-21T16:38:51;10.00;1.00
3794;DHT22;1912;51.358;12.282;2024-02-21T16:41:20;9.90;1.00
3794;DHT22;1912;51.358;12.282;2024-02-21T16:43:46;9.80;1.00
3794;DHT22;1912;51.358;12.282;2024-02-21T16:46:16;9.80;1.00
3794;DHT22;1912;51.358;12.282;2024-02-21T16:48:42;9.70;1.00
3794;DHT22;1912;51.358;12.282;2024-02-21T16:51:08;9.70;1.00
3794;DHT22;1912;51.358;12.282;2024-02-21T16:53:34;9.70;1.00
3794;DHT22;1912;51.358;12.282;2024-02-21T16:56:00;9.70;1.00
3794;DHT22;1912;51.358;12.282;2024-02-21T16:58:25;9.70;1.00
3794;DHT22;1912;51.358;12.282;2024-02-21T17:00:51;9.70;1.00
3794;DHT22;1912;51.358;12.282;2024-02-21T17:03:17;9.80;1.00
3794;DHT22;1912;51.358;12.282;2024-02-21T17:05:48;9.80;1.00
3794;DHT22;1912;51.358;12.282;2024-02-21T17:08:15;9.80;1.00
3794;DHT22;1912;51.358;12.282;2024-02-21T17:10:40;9.80;1.00
3794;DHT22;1912;51.358;12.282;2024-02-21T17:13:06;9.80;1.00
3794;DHT22;1912;51.358;12.282;2024-02-21T17:15:32;9.70;1.00
3794;DHT22;1912;51.358;12.282;2024-02-21T17:17:58;9.70;1.00
3794;DHT22;1912;51.358;12.282;2024-02-21T17:20:24;9.60;1.00
3794;DHT22;1912;51.358;12.282;2024-02-21T17:22:50;9.60;1.00
3794;DHT22;1912;51.358;12.282;2024-02-21T17:25:15;9.50;1.00
3794;DHT22;1912;51.358;12.282;2024-02-21T17:27:41;9.50;1.00
3794;DHT22;1912;51.358;12.282;2024-02-21T17:30:07;9.40;1.00
3794;DHT22;1912;51.358;12.282;2024-02-21T17:32:34;9.40;1.00
3794;DHT22;1912;51.358;12.282;2024-02-21T17:35:01;9.30;1.00
3794;DHT22;1912;51.358;12.282;2024-02-21T17:37:30;9.30;1.00
3794;DHT22;1912;51.358;12.282;2024-02-21T17:39:59;9.20;1.00
3794;DHT22;1912;51.358;12.282;2024-02-21T17:42:24;9.10;1.00
3794;DHT22;1912;51.358;12.282;2024-02-21T17:44:50;9.10;1.00
3794;DHT22;1912;51.358;12.282;2024-02-21T17:47:16;9.10;1.00
3794;DHT22;1912;51.358;12.282;2024-02-21T17:49:41;9.10;1.00
3794;DHT22;1912;51.358;12.282;2024-02-21T17:52:10;9.10;1.00
3794;DHT22;1912;51.358;12.282;2024-02-21T17:54:37;9.10;1.00
3794;DHT22;1912;51.358;12.282;2024-02-21T17:57:05;9.10;1.00
3794;DHT22;1912;51.358;12.282;2024-02-21T17:59:31;9.10;1.00
3794;DHT22;1912;51.358;12.282;2024-02-21T18:01:56;9.00;1.00
3794;DHT22;1912;51.358;12.282;2024-02-21T18:04:22;9.00;1.00
3794;DHT22;1912;51.358;12.282;2024-02-21T18:06:48;9.00;1.00
3794;DHT22;1912;51.358;12.282;2024-02-21T18:09:14;8.90;1.00
3794;DHT22;1912;51.358;12.282;2024-02-21T18:11:40;8.90;1.00
3794;DHT22;1912;51.358;12.282;2024-02-21T18:14:05;8.90;1.00
3794;DHT22;1912;51.358;12.282;2024-02-21T18:16:33;8.90;1.00
3794;DHT22;1912;51.358;12.282;2024-02-21T18:18:59;8.90;1.00
3794;DHT22;1912;51.358;12.282;2024-02-21T18:21:25;8.90;1.00
3794;DHT22;1912;51.358;12.282;2024-02-21T18:23:51;8.80;1.00
3794;DHT22;1912;51.358;12.282;2024-02-21T18:26:18;8.80;1.00
3794;DHT22;1912;51.358;12.282;2024-02-21T18:28:45;8.80;1.00
3794;DHT22;1912;51.358;12.282;2024-02-21T18:31:10;8.80;1.00
3794;DHT22;1912;51.358;12.282;2024-02-21T18:33:36;8.90;1.00
3794;DHT22;1912;51.358;12.282;2024-02-21T18:36:02;8.90;1.00
3794;DHT22;1912;51.358;12.282;2024-02-21T18:38:28;8.90;1.00
3794;DHT22;1912;51.358;12.282;2024-02-21T18:40:54;8.90;1.00
3794;DHT22;1912;51.358;12.282;2024-02-21T18:43:20;8.90;1.00
3794;DHT22;1912;51.358;12.282;2024-02-21T18:45:46;8.90;1.00
3794;DHT22;1912;51.358;12.282;2024-02-21T18:48:12;8.90;1.00
3794;DHT22;1912;51.358;12.282;2024-02-21T18:50:38;8.90;1.00
3794;DHT22;1912;51.358;12.282;2024-02-21T18:53:04;8.90;1.00
3794;DHT22;1912;51.358;12.282;2024-02-21T18:55:30;8.90;1.00
3794;DHT22;1912;51.358;12.282;2024-02-21T18:57:56;8.90;1.00
3794;DHT22;1912;51.358;12.282;2024-02-21T19:00:21;8.80;1.00
3794;DHT22;1912;51.358;12.282;2024-02-21T19:02:50;8.80;1.00
3794;DHT22;1912;51.358;12.282;2024-02-21T19:05:16;8.80;1.00
3794;DHT22;1912;51.358;12.282;2024-02-21T19:07:47;8.80;1.00
3794;DHT22;1912;51.358;12.282;2024-02-21T19:10:13;8.80;1.00
3794;DHT22;1912;51.358;12.282;2024-02-21T19:12:40;8.80;1.00
3794;DHT22;1912;51.358;12.282;2024-02-21T19:15:06;8.80;1.00
3794;DHT22;1912;51.358;12.282;2024-02-21T19:17:32;8.80;1.00
3794;DHT22;1912;51.358;12.282;2024-02-21T19:19:58;8.80;1.00
3794;DHT22;1912;51.358;12.282;2024-02-21T19:22:24;8.80;1.00
3794;DHT22;1912;51.358;12.282;2024-02-21T19:24:56;8.80;1.00
3794;DHT22;1912;51.358;12.282;2024-02-21T19:27:24;8.70;1.00
3794;DHT22;1912;51.358;12.282;2024-02-21T19:29:50;8.70;1.00
3794;DHT22;1912;51.358;12.282;2024-02-21T19:32:16;8.70;1.00
3794;DHT22;1912;51.358;12.282;2024-02-21T19:34:45;8.80;1.00
3794;DHT22;1912;51.358;12.282;2024-02-21T19:37:10;8.80;1.00
3794;DHT22;1912;51.358;12.282;2024-02-21T19:39:36;8.80;1.00
3794;DHT22;1912;51.358;12.282;2024-02-21T19:42:03;8.80;1.00
3794;DHT22;1912;51.358;12.282;2024-02-21T19:44:29;8.90;1.00
3794;DHT22;1912;51.358;12.282;2024-02-21T19:46:54;8.80;1.00
3794;DHT22;1912;51.358;12.282;2024-02-21T19:49:20;8.90;1.00
3794;DHT22;1912;51.358;12.282;2024-02-21T19:51:46;8.90;1.00
3794;DHT22;1912;51.358;12.282;2024-02-21T19:54:12;9.00;1.00
3794;DHT22;1912;51.358;12.282;2024-02-21T19:56:39;8.90;1.00
3794;DHT22;1912;51.358;12.282;2024-02-21T19:59:04;9.00;1.00
3794;DHT22;1912;51.358;12.282;2024-02-21T20:01:31;8.90;1.00
3794;DHT22;1912;51.358;12.282;2024-02-21T20:03:57;8.90;1.00
3794;DHT22;1912;51.358;12.282;2024-02-21T20:06:23;8.90;1.00
3794;DHT22;1912;51.358;12.282;2024-02-21T20:08:49;8.90;1.00
3794;DHT22;1912;51.358;12.282;2024-02-21T20:11:14;8.90;1.00
3794;DHT22;1912;51.358;12.282;2024-02-21T20:13:40;8.90;1.00
3794;DHT22;1912;51.358;12.282;2024-02-21T20:16:07;8.90;1.00
3794;DHT22;1912;51.358;12.282;2024-02-21T20:18:33;8.90;1.00
3794;DHT22;1912;51.358;12.282;2024-02-21T20:20:58;8.90;1.00
3794;DHT22;1912;51.358;12.282;2024-02-21T20:23:24;8.90;1.00
3794;DHT22;1912;51.358;12.282;2024-02-21T20:25:50;8.90;1.00
3794;DHT22;1912;51.358;12.282;2024-02-21T20:28:17;8.90;1.00
3794;DHT22;1912;51.358;12.282;2024-02-21T20:30:43;8.90;1.00
3794;DHT22;1912;51.358;12.282;2024-02-21T20:33:12;8.90;1.00
3794;DHT22;1912;51.358;12.282;2024-02-21T20:35:38;8.90;1.00
3794;DHT22;1912;51.358;12.282;2024-02-21T20:38:04;8.90;1.00
3794;DHT22;1912;51.358;12.282;2024-02-21T20:40:30;8.90;1.00
3794;DHT22;1912;51.358;12.282;2024-02-21T20:42:56;8.90;1.00
3794;DHT22;1912;51.358;12.282;2024-02-21T20:45:22;8.90;1.00
3794;DHT22;1912;51.358;12.282;2024-02-21T20:47:47;8.90;1.00
3794;DHT22;1912;51.358;12.282;2024-02-21T20:50:13;8.90;1.00
3794;DHT22;1912;51.358;12.282;2024-02-21T20:52:39;8.90;1.00
3794;DHT22;1912;51.358;12.282;2024-02-21T20:55:04;8.90;1.00
3794;DHT22;1912;51.358;12.282;2024-02-21T20:57:32;8.90;1.00
3794;DHT22;1912;51.358;12.282;2024-02-21T20:59:59;8.90;1.00
3794;DHT22;1912;51.358;12.282;2024-02-21T21:02:24;8.90;1.00
3794;DHT22;1912;51.358;12.282;2024-02-21T21:04:50;8.90;1.00
3794;DHT22;1912;51.358;12.282;2024-02-21T21:07:16;8.90;1.00
3794;DHT22;1912;51.358;12.282;2024-02-21T21:09:42;8.90;1.00